createdAt,value
2022-08-19T00:01:13.561Z,100.00
2022-08-19T00:06:18.896Z,100.00
2022-08-19T00:11:25.764Z,100.00
2022-08-19T00:16:31.269Z,100.00
2022-08-19T00:21:40.605Z,100.00
2022-08-19T00:26:45.676Z,100.00
2022-08-19T00:31:53.983Z,100.00
2022-08-19T00:36:58.395Z,100.00
2022-08-19T00:42:02.198Z,100.00
2022-08-19T00:47:07.639Z,100.00
2022-08-19T00:52:23.217Z,100.00
2022-08-19T00:57:32.852Z,100.00
2022-08-19T01:02:37.970Z,100.00
2022-08-19T01:07:43.176Z,100.00
2022-08-19T01:12:47.413Z,100.00
2022-08-19T01:17:53.975Z,100.00
2022-08-19T01:23:00.906Z,100.00
2022-08-19T01:28:09.228Z,100.00
2022-08-19T01:33:15.829Z,100.00
2022-08-19T01:38:26.562Z,100.00
2022-08-19T01:43:30.480Z,100.00
2022-08-19T01:48:39.522Z,100.00
2022-08-19T01:53:44.837Z,100.00
2022-08-19T01:58:54.300Z,100.00
2022-08-19T02:03:57.998Z,100.00
2022-08-19T02:09:03.371Z,100.00
2022-08-19T02:14:09.390Z,100.00
2022-08-19T02:19:13.085Z,100.00
2022-08-19T02:24:18.226Z,100.00
2022-08-19T02:29:22.011Z,100.00
2022-08-19T02:34:26.280Z,100.00
2022-08-19T02:39:31.200Z,100.00
2022-08-19T02:44:34.806Z,100.00
2022-08-19T02:49:38.521Z,100.00
2022-08-19T02:54:43.703Z,100.00
2022-08-19T02:59:47.336Z,100.00
2022-08-19T03:04:50.965Z,100.00
2022-08-19T03:09:55.943Z,100.00
2022-08-19T03:14:59.493Z,100.00
2022-08-19T03:20:03.434Z,100.00
2022-08-19T03:25:09.261Z,100.00
2022-08-19T03:30:14.387Z,100.00
2022-08-19T03:35:24.093Z,100.00
2022-08-19T03:40:31.055Z,100.00
2022-08-19T03:45:34.974Z,100.00
2022-08-19T03:50:41.215Z,100.00
2022-08-19T03:55:46.224Z,100.00
2022-08-19T04:00:50.074Z,100.00
2022-08-19T04:05:54.571Z,100.00
2022-08-19T04:10:59.517Z,100.00
2022-08-19T04:16:03.211Z,100.00
2022-08-19T04:21:07.602Z,100.00
2022-08-19T04:26:16.670Z,100.00
2022-08-19T04:31:22.587Z,100.00
2022-08-19T04:36:28.580Z,100.00
2022-08-19T04:41:51.206Z,100.00
2022-08-19T04:46:55.321Z,100.00
2022-08-19T04:51:59.049Z,100.00
2022-08-19T04:57:06.177Z,100.00
2022-08-19T05:02:11.028Z,100.00
2022-08-19T05:07:14.720Z,100.00
2022-08-19T05:12:20.123Z,100.00
2022-08-19T05:17:27.659Z,100.00
2022-08-19T05:22:35.762Z,100.00
2022-08-19T05:27:40.857Z,100.00
2022-08-19T05:32:45.003Z,100.00
2022-08-19T05:37:49.026Z,100.00
2022-08-19T05:42:57.899Z,100.00
2022-08-19T05:48:01.422Z,100.00
2022-08-19T05:53:05.219Z,100.00
2022-08-19T05:58:10.191Z,100.00
2022-08-19T06:03:13.852Z,100.00
2022-08-19T06:08:19.540Z,100.00
2022-08-19T06:13:25.516Z,100.00
2022-08-19T06:18:30.463Z,100.00
2022-08-19T06:23:35.920Z,100.00
2022-08-19T06:28:43.698Z,100.00
2022-08-19T06:33:47.439Z,100.00
2022-08-19T06:38:54.106Z,100.00
2022-08-19T06:43:59.534Z,100.00
2022-08-19T06:49:03.918Z,100.00
2022-08-19T06:54:19.183Z,100.00
2022-08-19T06:59:28.203Z,100.00
2022-08-19T07:04:34.849Z,100.00
2022-08-19T07:09:41.520Z,100.00
2022-08-19T07:14:50.415Z,100.00
2022-08-19T07:19:56.474Z,100.00
2022-08-19T07:25:01.825Z,100.00
2022-08-19T07:30:11.702Z,100.00
2022-08-19T07:35:16.630Z,100.00
2022-08-19T07:40:22.014Z,100.00
2022-08-19T07:45:30.211Z,100.00
2022-08-19T07:50:35.464Z,100.00
2022-08-19T07:55:43.927Z,100.00
2022-08-19T08:00:53.232Z,100.00
2022-08-19T08:06:15.026Z,100.00
2022-08-19T08:11:24.026Z,100.00
2022-08-19T08:16:32.590Z,100.00
2022-08-19T08:21:36.962Z,100.00
2022-08-19T08:26:46.840Z,100.00
2022-08-19T08:32:00.155Z,100.00
2022-08-19T08:37:04.651Z,100.00
2022-08-19T08:42:17.498Z,100.00
2022-08-19T08:47:25.342Z,100.00
2022-08-19T08:52:33.362Z,100.00
2022-08-19T08:57:43.701Z,100.00
2022-08-19T09:02:52.598Z,100.00
2022-08-19T09:08:06.006Z,100.00
2022-08-19T09:13:23.293Z,100.00
2022-08-19T09:18:29.759Z,100.00
2022-08-19T09:23:33.726Z,100.00
2022-08-19T09:28:40.262Z,100.00
2022-08-19T09:33:49.742Z,100.00
2022-08-19T09:38:55.913Z,100.00
2022-08-19T09:44:01.139Z,100.00
2022-08-19T09:49:07.445Z,100.00
2022-08-19T09:54:11.431Z,100.00
2022-08-19T09:59:15.298Z,100.00
2022-08-19T10:04:22.313Z,100.00
2022-08-19T10:09:34.364Z,100.00
2022-08-19T10:14:39.310Z,100.00
2022-08-19T10:19:55.373Z,100.00
2022-08-19T10:25:00.028Z,85.80
2022-08-19T10:30:04.172Z,81.06
2022-08-19T10:35:16.045Z,78.16
2022-08-19T10:40:25.926Z,70.94
2022-08-19T10:45:29.727Z,70.42
2022-08-19T10:50:52.324Z,70.54
2022-08-19T10:56:13.520Z,66.95
2022-08-19T11:01:17.394Z,65.53
2022-08-19T11:06:22.590Z,62.14
2022-08-19T11:11:26.339Z,61.90
2022-08-19T11:16:31.075Z,62.88
2022-08-19T11:21:38.803Z,63.56
2022-08-19T11:26:44.009Z,60.41
2022-08-19T11:31:50.387Z,63.30
2022-08-19T11:36:55.643Z,62.39
2022-08-19T11:42:02.035Z,59.06
2022-08-19T11:47:09.126Z,62.03
2022-08-19T11:52:14.636Z,59.63
2022-08-19T11:57:18.499Z,58.13
2022-08-19T12:02:22.681Z,56.57
2022-08-19T12:07:27.732Z,55.39
2022-08-19T12:12:31.282Z,53.91
2022-08-19T12:17:35.086Z,52.92
2022-08-19T12:22:40.401Z,53.38
2022-08-19T12:27:49.637Z,53.59
2022-08-19T12:32:56.268Z,51.27
2022-08-19T12:38:03.851Z,53.28
2022-08-19T12:43:07.818Z,53.46
2022-08-19T12:48:34.374Z,54.95
2022-08-19T12:53:39.264Z,53.12
2022-08-19T12:58:49.038Z,52.64
2022-08-19T13:03:55.626Z,52.15
2022-08-19T13:09:00.736Z,51.36
2022-08-19T13:14:06.898Z,52.04
2022-08-19T13:19:11.750Z,53.98
2022-08-19T13:24:16.672Z,55.75
2022-08-19T13:29:35.422Z,56.18
2022-08-19T13:34:39.363Z,56.54
2022-08-19T13:39:46.098Z,56.40
2022-08-19T13:44:49.840Z,55.63
2022-08-19T13:49:53.855Z,56.51
2022-08-19T13:54:59.743Z,55.86
2022-08-19T14:00:11.846Z,56.57
2022-08-19T14:05:17.728Z,59.44
2022-08-19T14:10:23.881Z,60.13
2022-08-19T14:15:29.148Z,58.47
2022-08-19T14:20:32.785Z,57.73
2022-08-19T14:25:37.974Z,58.50
2022-08-19T14:30:41.799Z,59.74
2022-08-19T14:35:46.081Z,59.35
2022-08-19T14:40:53.310Z,60.87
2022-08-19T14:45:58.432Z,60.85
2022-08-19T14:51:02.574Z,62.15
2022-08-19T14:56:11.820Z,62.71
2022-08-19T15:01:16.301Z,63.09
2022-08-19T15:06:19.947Z,63.41
2022-08-19T15:11:28.900Z,62.26
2022-08-19T15:16:32.461Z,61.60
2022-08-19T15:21:37.306Z,63.48
2022-08-19T15:26:43.755Z,63.13
2022-08-19T15:31:47.401Z,62.74
2022-08-19T15:36:53.055Z,62.34
2022-08-19T15:42:00.564Z,62.53
2022-08-19T15:47:05.328Z,61.22
2022-08-19T15:52:09.155Z,62.30
2022-08-19T15:57:31.497Z,60.81
2022-08-19T16:02:53.596Z,62.44
2022-08-19T16:07:57.710Z,62.51
2022-08-19T16:13:02.647Z,61.42
2022-08-19T16:18:06.314Z,61.67
2022-08-19T16:23:10.288Z,63.88
2022-08-19T16:28:15.475Z,62.92
2022-08-19T16:33:22.829Z,65.02
2022-08-19T16:38:27.672Z,63.35
2022-08-19T16:43:32.633Z,63.60
2022-08-19T16:48:43.049Z,60.31
2022-08-19T16:53:46.787Z,61.59
2022-08-19T16:58:51.880Z,65.14
2022-08-19T17:03:55.854Z,66.47
2022-08-19T17:09:01.192Z,65.89
2022-08-19T17:14:07.263Z,69.25
2022-08-19T17:19:10.778Z,73.27
2022-08-19T17:24:14.413Z,74.65
2022-08-19T17:29:19.213Z,78.67
2022-08-19T17:34:22.876Z,79.94
2022-08-19T17:39:26.475Z,79.40
2022-08-19T17:44:33.197Z,77.77
2022-08-19T17:49:37.554Z,82.84
2022-08-19T17:54:40.959Z,85.15
2022-08-19T17:59:46.076Z,88.59
2022-08-19T18:04:50.234Z,87.60
2022-08-19T18:09:54.987Z,89.79
2022-08-19T18:15:04.088Z,88.20
2022-08-19T18:20:12.383Z,91.54
2022-08-19T18:25:19.255Z,92.65
2022-08-19T18:30:25.938Z,92.87
2022-08-19T18:35:31.028Z,97.27
2022-08-19T18:41:03.926Z,98.80
2022-08-19T18:46:26.300Z,99.27
2022-08-19T18:51:34.795Z,100.00
2022-08-19T18:56:42.408Z,100.00
2022-08-19T19:01:50.794Z,100.00
2022-08-19T19:06:58.038Z,100.00
2022-08-19T19:12:04.388Z,100.00
2022-08-19T19:17:13.000Z,100.00
2022-08-19T19:22:19.930Z,100.00
2022-08-19T19:27:23.542Z,100.00
2022-08-19T19:32:36.978Z,100.00
2022-08-19T19:37:45.213Z,100.00
2022-08-19T19:42:49.075Z,100.00
2022-08-19T19:47:54.169Z,100.00
2022-08-19T19:52:58.576Z,100.00
2022-08-19T19:58:03.003Z,100.00
2022-08-19T20:03:09.447Z,100.00
2022-08-19T20:08:30.436Z,100.00
2022-08-19T20:13:35.726Z,100.00
2022-08-19T20:18:41.278Z,100.00
2022-08-19T20:23:45.060Z,100.00
2022-08-19T20:29:13.874Z,100.00
2022-08-19T20:34:34.812Z,100.00
2022-08-19T20:39:39.042Z,100.00
2022-08-19T20:44:42.556Z,100.00
2022-08-19T20:49:47.589Z,100.00
2022-08-19T20:54:51.228Z,100.00
2022-08-19T20:59:54.982Z,100.00
2022-08-19T21:05:00.270Z,100.00
2022-08-19T21:10:04.811Z,100.00
2022-08-19T21:15:09.346Z,100.00
2022-08-19T21:20:14.600Z,100.00
2022-08-19T21:25:19.236Z,100.00
2022-08-19T21:30:23.205Z,100.00
2022-08-19T21:35:28.958Z,100.00
2022-08-19T21:40:32.678Z,100.00
2022-08-19T21:45:36.455Z,100.00
2022-08-19T21:50:41.614Z,100.00
2022-08-19T21:55:52.771Z,100.00
2022-08-19T22:00:57.005Z,100.00
2022-08-19T22:06:02.057Z,100.00
2022-08-19T22:11:06.033Z,100.00
2022-08-19T22:16:11.384Z,100.00
2022-08-19T22:21:20.162Z,100.00
2022-08-19T22:26:40.995Z,100.00
2022-08-19T22:31:44.714Z,100.00
2022-08-19T22:36:49.774Z,100.00
2022-08-19T22:41:53.706Z,100.00
2022-08-19T22:46:57.275Z,100.00
2022-08-19T22:52:18.443Z,100.00
2022-08-19T22:57:23.453Z,100.00
2022-08-19T23:02:29.817Z,100.00
2022-08-19T23:07:35.266Z,100.00
2022-08-19T23:12:41.836Z,100.00
2022-08-19T23:17:45.643Z,100.00
2022-08-19T23:22:50.994Z,100.00
2022-08-19T23:28:12.385Z,100.00
2022-08-19T23:33:21.657Z,100.00
2022-08-19T23:38:32.322Z,100.00
2022-08-19T23:43:37.499Z,100.00
2022-08-19T23:48:42.960Z,100.00
2022-08-19T23:53:47.881Z,100.00
2022-08-19T23:58:51.470Z,100.00
